createdAt,value
2022-09-25T00:03:09.801Z,17.7
2022-09-25T00:08:31.703Z,17.7
2022-09-25T00:14:12.357Z,17.7
2022-09-25T00:19:49.768Z,17.6
2022-09-25T00:25:27.093Z,17.6
2022-09-25T00:31:04.916Z,17.6
2022-09-25T00:36:27.442Z,17.6
2022-09-25T00:41:49.918Z,17.6
2022-09-25T00:47:11.229Z,17.6
2022-09-25T00:52:48.642Z,17.6
2022-09-25T00:58:10.962Z,17.6
2022-09-25T01:03:49.164Z,17.6
2022-09-25T01:09:27.028Z,17.6
2022-09-25T01:15:03.815Z,17.6
2022-09-25T01:20:27.196Z,17.6
2022-09-25T01:26:05.173Z,17.6
2022-09-25T01:31:42.324Z,17.6
2022-09-25T01:37:19.997Z,17.6
2022-09-25T01:42:57.437Z,17.6
2022-09-25T01:48:18.851Z,17.5
2022-09-25T01:53:39.675Z,17.5
2022-09-25T01:59:01.302Z,17.5
2022-09-25T02:04:39.457Z,17.5
2022-09-25T02:10:00.899Z,17.5
2022-09-25T02:15:22.332Z,17.4
2022-09-25T02:20:29.164Z,17.5
2022-09-25T02:25:50.708Z,17.5
2022-09-25T02:31:13.140Z,17.4
2022-09-25T02:36:39.507Z,17.4
2022-09-25T02:41:45.667Z,17.4
2022-09-25T02:47:23.285Z,17.4
2022-09-25T02:52:44.543Z,17.4
2022-09-25T02:58:27.597Z,17.4
2022-09-25T03:04:04.949Z,17.4
2022-09-25T03:09:27.645Z,17.4
2022-09-25T03:14:33.648Z,17.4
2022-09-25T03:19:56.430Z,17.4
2022-09-25T03:25:03.123Z,17.4
2022-09-25T03:30:40.365Z,17.4
2022-09-25T03:35:47.018Z,17.4
2022-09-25T03:41:08.684Z,17.4
2022-09-25T03:46:29.288Z,17.4
2022-09-25T03:51:50.321Z,17.4
2022-09-25T03:56:41.668Z,17.4
2022-09-25T04:02:04.299Z,17.3
2022-09-25T04:07:10.806Z,17.3
2022-09-25T04:12:17.278Z,17.4
2022-09-25T04:17:24.648Z,17.3
2022-09-25T04:22:30.556Z,17.3
2022-09-25T04:27:22.823Z,17.3
2022-09-25T04:32:43.723Z,17.3
2022-09-25T04:38:21.499Z,17.3
2022-09-25T04:43:43.385Z,17.3
2022-09-25T04:49:10.305Z,17.3
2022-09-25T04:54:32.591Z,17.3
2022-09-25T05:00:27.749Z,17.3
2022-09-25T05:05:52.639Z,17.3
2022-09-25T05:11:15.159Z,17.3
2022-09-25T05:16:37.795Z,17.3
2022-09-25T05:22:00.664Z,16.8
2022-09-25T05:27:28.616Z,16.9
2022-09-25T05:32:35.173Z,17.1
2022-09-25T05:38:13.228Z,17.1
2022-09-25T05:43:50.785Z,17.1
2022-09-25T05:49:13.455Z,17.1
2022-09-25T05:54:51.791Z,17.2
2022-09-25T05:59:58.062Z,17.2
2022-09-25T06:05:21.073Z,17.2
2022-09-25T06:16:32.999Z,17.3
2022-09-25T06:22:13.943Z,17.2
2022-09-25T06:27:50.747Z,17.3
2022-09-25T06:33:35.428Z,17.3
2022-09-25T06:39:14.482Z,17.3
2022-09-25T06:44:54.029Z,17.3
2022-09-25T06:50:38.054Z,17.3
2022-09-25T06:56:15.638Z,17.3
2022-09-25T07:01:43.823Z,17.3
2022-09-25T07:07:21.958Z,17.3
2022-09-25T07:12:59.960Z,17.3
2022-09-25T07:18:37.773Z,17.3
2022-09-25T07:24:16.161Z,17.3
2022-09-25T07:29:54.432Z,17.3
2022-09-25T07:35:32.740Z,17.3
2022-09-25T07:41:16.465Z,17.3
2022-09-25T07:47:20.433Z,17.3
2022-09-25T07:52:47.156Z,17.3
2022-09-25T07:58:25.628Z,17.3
2022-09-25T08:04:12.740Z,17.3
2022-09-25T08:09:52.158Z,17.3
2022-09-25T08:15:35.562Z,17.4
2022-09-25T08:21:00.359Z,17.4
2022-09-25T08:26:40.537Z,17.4
2022-09-25T08:32:21.237Z,17.4
2022-09-25T08:38:19.366Z,17.4
2022-09-25T08:44:01.889Z,17.4
2022-09-25T08:50:08.055Z,17.4
2022-09-25T08:55:35.984Z,17.4
2022-09-25T09:01:15.961Z,17.4
2022-09-25T09:06:42.729Z,17.4
2022-09-25T09:12:38.418Z,17.4
2022-09-25T09:17:46.906Z,17.4
2022-09-25T09:23:14.880Z,17.4
2022-09-25T09:28:39.904Z,17.4
2022-09-25T09:33:47.976Z,17.4
2022-09-25T09:39:44.236Z,17.4
2022-09-25T09:45:09.129Z,17.5
2022-09-25T09:50:52.291Z,17.5
2022-09-25T09:56:32.696Z,17.5
2022-09-25T10:02:45.634Z,17.5
2022-09-25T10:08:26.303Z,17.5
2022-09-25T10:14:05.794Z,17.5
2022-09-25T10:19:46.246Z,17.5
2022-09-25T10:25:29.450Z,17.5
2022-09-25T20:08:30.983Z,18.1
2022-09-25T20:14:13.552Z,18.1
2022-09-25T20:19:57.617Z,18.1
2022-09-25T20:25:23.380Z,18.1
2022-09-25T20:31:03.619Z,18.1
2022-09-25T20:36:28.689Z,18.1
2022-09-25T20:42:10.793Z,18.2
2022-09-25T20:47:35.742Z,18.2
2022-09-25T20:53:15.244Z,18.1
2022-09-25T20:58:56.235Z,18.2
2022-09-25T21:04:37.934Z,18.2
2022-09-25T21:10:05.700Z,18.2
2022-09-25T21:15:46.249Z,18.2
2022-09-25T21:21:26.276Z,18.2
2022-09-25T21:27:05.613Z,18.2
2022-09-25T21:32:32.762Z,18.2
2022-09-25T21:38:12.796Z,18.2
2022-09-25T21:43:38.611Z,18.2
2022-09-25T21:49:18.851Z,18.2
2022-09-25T21:54:58.110Z,18.2
2022-09-25T22:00:35.888Z,18.2
2022-09-25T22:06:15.941Z,18.2
2022-09-25T22:11:54.721Z,18.2
2022-09-25T22:17:21.077Z,18.2
2022-09-25T22:22:44.023Z,18.2
2022-09-25T22:28:22.088Z,18.2
2022-09-25T22:33:44.943Z,18.2
2022-09-25T22:39:29.599Z,18.2
2022-09-25T22:44:51.882Z,18.2
2022-09-25T22:50:28.973Z,18.2
2022-09-25T22:56:06.331Z,18.2
2022-09-25T23:01:44.528Z,18.2
2022-09-25T23:07:22.238Z,18.2
2022-09-25T23:13:22.167Z,18.2
2022-09-25T23:19:00.420Z,18.2
2022-09-25T23:24:36.079Z,18.2
2022-09-25T23:29:59.189Z,18.2
2022-09-25T23:35:21.586Z,18.2
2022-09-25T23:40:47.556Z,18.2
2022-09-25T23:46:10.238Z,18.2
2022-09-25T23:51:48.272Z,18.2
2022-09-25T23:57:25.774Z,18.2
